This is the latest recevied weather packets stored in our database for station/object VK5GR-12. If no packets are shown the sender has not sent any weather packets the latest 10 day(s).
| Time | Temp. | Humidity | Pressure | Rain* | Wind** | Luminosity | Snow |
|---|---|---|---|---|---|---|---|
| 1777512307 | 26.67° C | 30% | 1022.2 hPa | 0 mm | - | 305 W/m² | - |
| 1777511405 | 26.11° C | 30% | 1022.4 hPa | 0 mm | - | 245 W/m² | - |
| 1777510500 | 26.11° C | 30% | 1022.4 hPa | 0 mm | - | 214 W/m² | - |
| 1777508697 | 24.44° C | 33% | 1022.9 hPa | 0 mm | - | 183 W/m² | - |
| 1777506891 | 23.89° C | 32% | 1023 hPa | 0 mm | - | 148 W/m² | - |
| 1777500569 | 22.78° C | 31% | 1022.5 hPa | 0 mm | - | 31 W/m² | - |
| 1777497857 | 22.78° C | 31% | 1022.1 hPa | 0 mm | - | 1 W/m² | - |
| 1777496958 | 22.78° C | 31% | 1021.9 hPa | 0 mm | - | 0 W/m² | - |
| 1777496054 | 23.33° C | 31% | 1021.7 hPa | 0 mm | - | 0 W/m² | - |
| 1777495153 | 23.33° C | 31% | 1021.6 hPa | 0 mm | - | 0 W/m² | - |
| 1777494251 | 23.33° C | 32% | 1021.7 hPa | 0 mm | - | 0 W/m² | - |
| 1777491545 | 22.78° C | 32% | 1021.4 hPa | 0 mm | - | 0 W/m² | - |
| 1777490640 | 22.78° C | 32% | 1021.3 hPa | 0 mm | - | 0 W/m² | - |
| 1777488835 | 22.78° C | 33% | 1021.2 hPa | 0 mm | - | 0 W/m² | - |
| 1777487933 | 22.78° C | 33% | 1021.2 hPa | 0 mm | - | 0 W/m² | - |
| 1777486127 | 22.78° C | 33% | 1021.3 hPa | 0 mm | - | 0 W/m² | - |
| 1777484318 | 22.78° C | 33% | 1021.4 hPa | 0 mm | - | 0 W/m² | - |
| 1777483412 | 22.78° C | 34% | 1021.6 hPa | 0 mm | - | 0 W/m² | - |
| 1777480705 | 22.78° C | 34% | 1021.9 hPa | 0 mm | - | 0 W/m² | - |
| 1777479801 | 22.78° C | 34% | 1022.1 hPa | 0 mm | - | 0 W/m² | - |
| 1777478897 | 22.78° C | 34% | 1022.1 hPa | 0 mm | - | 0 W/m² | - |
| 1777477994 | 22.78° C | 34% | 1022.2 hPa | 0 mm | - | 0 W/m² | - |
| 1777477088 | 22.78° C | 34% | 1022.2 hPa | 0 mm | - | 0 W/m² | - |
| 1777476185 | 22.78° C | 33% | 1022.4 hPa | 0 mm | - | 0 W/m² | - |
| 1777474379 | 23.33° C | 33% | 1022.5 hPa | 0 mm | - | 0 W/m² | - |
* Rain latest hour (hover to see other rain measurements)
** Current wind speed in m/s (hover to see current wind gust speed)